메인 페이지
METAR-TAF:

METAR-TAF

공항 :

테구시갈파, 온두라스

위도: 14-03N, 경도: 087-13W, 고도: 994m

현재 날씨관측

예보는 17분 전, 20:00시(UTC)에 발표되었습니다.
북북서4kt
온도 29°C
습도 40%
기압 1015 hPa
시정 10km 이상
고도 3200ft 상공 구름 많음, 타워링 적운.
고도 3400ft 상공 구름 조금, 적란운.

METAR: MHTG 182000Z 33004KT 9999 BKN032TCU FEW034CB 29/14 Q1015 A2997 NOSIG

시각: 14:17 (20:17 UTC)

예보

예보는 3 시간 42분 전, 16:35시(UTC)에 발표되었습니다.
예보 대상 시간: 18일 18시부터 19일 18시까지 (UTC)
동북동6kt
시정 10km 이상
고도 2800ft 상공 구름 보통, 타워링 적운.
확률 30% :
일시적
18일 22시부터 19일 04시까지 (UTC)
시정: 8000m
고도 2800ft 상공 구름 보통, 타워링 적운.
고도 3000ft 상공 구름 조금, 적란운.
고도 8000ft 상공 구름 보통
약한비
전환 중
19일 04시부터 19일 06시까지 (UTC)
4kt
시정: 7000m
고도 2600ft 상공 구름 많음
시계 내 소나기
전환 중
19일 11시부터 19일 13시까지 (UTC)
남남동3kt
시정: 8000m
고도 800ft 상공 구름 조금
고도 2600ft 상공 구름 보통
전환 중
19일 14시부터 19일 16시까지 (UTC)
시정 10km 이상
고도 2800ft 상공 구름 보통, 타워링 적운.

TAF: MHTG 181635Z 1818/1918 06006KT 9999 SCT028TCU TX30/1821Z TN17/1912Z PROB30 TEMPO 1822/1904 8000 -RA SCT028TCU FEW030CB SCT080 BECMG 1904/1906 01004KT 7000 VCSH BKN026 BECMG 1911/1913 16003KT 8000 FEW008 SCT026 BECMG 1914/1916 9999 SCT028TCU

4,000개 이상의 공항 관측 자료 및 예보 (METAR 및 TAF 보고).

지도상에서 검색 가능한 기상관측소가 노란 점과 빨간 점으로 표시되어 있습니다.

기상관측소 명을 보려면 표시 위로 마우스를 이동하세요.

날씨 관측과 예보를 보려면 클릭하세요.

지도 변경 : 확대하려면 엑스 표시가 있는 녹색 버튼, 축소하려면 빼기 표시가 있는 녹색 버튼, 다음 페이지의 지도를 보려면 녹색 화살표를 클릭하세요.


METAR-TAF: